NGN2603 EKCH-EDDL
Flight info
| Callsign | NGN2603 |
|---|---|
| Flight time | 1h 13m |
| Altitude | 38000 |
| Route | NEXEN T503 GIMRU DCT MICOS DCT KEGAB DCT DENOL/N0375F260 T851 HALME HALME1A |
| Aircraft | A320/M-SDE3FGHIRWY/LB1 |
Departure
| Time | 2026-05-04 19:02 |
|---|---|
| Airport | Copenhagen Kastrup Airport (EKCH) |
Arrival
| Time | 2026-05-04 20:15 |
|---|---|
| Airport | Düsseldorf Airport (EDDL) |
| Time | Latitude | Longitude | Altitude | Speed | Heading |
|---|---|---|---|---|---|
| 2026-05-04 17:54 | 55.62738 | 12.65251 | 19 ft | 0 kts | 10° |
| 2026-05-04 18:49 | 55.62728 | 12.65248 | 20 ft | 3 kts | 3° |
| 2026-05-04 18:50 | 55.62710 | 12.65246 | 18 ft | 3 kts | 351° |
| 2026-05-04 18:50 | 55.62693 | 12.65252 | 19 ft | 2 kts | 348° |
| 2026-05-04 18:50 | 55.62678 | 12.65261 | 19 ft | 2 kts | 317° |
| 2026-05-04 18:50 | 55.62666 | 12.65281 | 21 ft | 2 kts | 317° |
| 2026-05-04 18:51 | 55.62653 | 12.65300 | 20 ft | 2 kts | 336° |
| 2026-05-04 18:51 | 55.62638 | 12.65311 | 22 ft | 2 kts | 345° |
| 2026-05-04 18:51 | 55.62621 | 12.65315 | 21 ft | 2 kts | 356° |
| 2026-05-04 18:51 | 55.62618 | 12.65315 | 21 ft | 0 kts | 356° |
| 2026-05-04 18:52 | 55.62621 | 12.65315 | 21 ft | 4 kts | 356° |
| 2026-05-04 18:53 | 55.62651 | 12.65245 | 20 ft | 9 kts | 263° |
| 2026-05-04 18:53 | 55.62605 | 12.65178 | 19 ft | 8 kts | 191° |
| 2026-05-04 18:53 | 55.62552 | 12.65178 | 19 ft | 7 kts | 175° |
| 2026-05-04 18:53 | 55.62511 | 12.65183 | 20 ft | 5 kts | 176° |
| 2026-05-04 18:54 | 55.62431 | 12.65192 | 21 ft | 22 kts | 176° |
| 2026-05-04 18:54 | 55.62299 | 12.65184 | 22 ft | 16 kts | 206° |
| 2026-05-04 18:54 | 55.62292 | 12.65020 | 24 ft | 15 kts | 302° |
| 2026-05-04 18:54 | 55.62348 | 12.64864 | 25 ft | 14 kts | 290° |
| 2026-05-04 18:55 | 55.62334 | 12.64750 | 23 ft | 10 kts | 249° |
| 2026-05-04 18:55 | 55.62297 | 12.64592 | 19 ft | 0 kts | 245° |
| 2026-05-04 18:56 | 55.62284 | 12.64544 | 19 ft | 6 kts | 245° |
| 2026-05-04 18:56 | 55.62268 | 12.64484 | 19 ft | 5 kts | 245° |
| 2026-05-04 18:57 | 55.62226 | 12.64373 | 17 ft | 16 kts | 217° |
| 2026-05-04 18:57 | 55.62120 | 12.64269 | 19 ft | 15 kts | 203° |
| 2026-05-04 18:57 | 55.62034 | 12.64206 | 19 ft | 12 kts | 202° |
| 2026-05-04 18:57 | 55.61966 | 12.64157 | 37 ft | 9 kts | 204° |
| 2026-05-04 18:58 | 55.61917 | 12.64115 | 21 ft | 10 kts | 206° |
| 2026-05-04 18:58 | 55.61820 | 12.64074 | 21 ft | 16 kts | 176° |
| 2026-05-04 18:58 | 55.61752 | 12.64083 | 22 ft | 0 kts | 175° |
| 2026-05-04 19:00 | 55.61740 | 12.64084 | 19 ft | 4 kts | 175° |
| 2026-05-04 19:00 | 55.61673 | 12.64088 | 22 ft | 11 kts | 180° |
| 2026-05-04 19:00 | 55.61577 | 12.63999 | 18 ft | 23 kts | 220° |
| 2026-05-04 19:01 | 55.61449 | 12.63802 | 17 ft | 25 kts | 221° |
| 2026-05-04 19:01 | 55.61234 | 12.63465 | 23 ft | 72 kts | 221° |
| 2026-05-04 19:01 | 55.60696 | 12.62631 | 22 ft | 131 kts | 221° |
| 2026-05-04 19:01 | 55.59912 | 12.61418 | 253 ft | 157 kts | 223° |
| 2026-05-04 19:02 | 55.59073 | 12.60202 | 932 ft | 157 kts | 220° |
| 2026-05-04 19:02 | 55.58136 | 12.59174 | 1623 ft | 160 kts | 208° |
| 2026-05-04 19:02 | 55.57087 | 12.58430 | 2134 ft | 169 kts | 216° |
| 2026-05-04 19:02 | 55.56145 | 12.57062 | 2419 ft | 188 kts | 225° |
| 2026-05-04 19:03 | 55.55107 | 12.55435 | 2678 ft | 211 kts | 224° |
| 2026-05-04 19:03 | 55.53916 | 12.53663 | 2983 ft | 237 kts | 222° |
| 2026-05-04 19:03 | 55.52568 | 12.51768 | 3508 ft | 255 kts | 220° |
| 2026-05-04 19:03 | 55.51139 | 12.49862 | 4395 ft | 259 kts | 219° |
| 2026-05-04 19:04 | 55.49679 | 12.47992 | 5325 ft | 261 kts | 218° |
| 2026-05-04 19:04 | 55.48195 | 12.46136 | 6250 ft | 262 kts | 218° |
| 2026-05-04 19:04 | 55.46694 | 12.44285 | 7116 ft | 264 kts | 218° |
| 2026-05-04 19:04 | 55.45179 | 12.42427 | 7965 ft | 267 kts | 218° |
| 2026-05-04 19:05 | 55.43646 | 12.40549 | 8814 ft | 270 kts | 218° |
| 2026-05-04 19:05 | 55.42094 | 12.38650 | 9662 ft | 273 kts | 218° |
| 2026-05-04 19:05 | 55.40521 | 12.36731 | 10336 ft | 282 kts | 218° |
| 2026-05-04 19:05 | 55.38848 | 12.34688 | 10577 ft | 305 kts | 218° |
| 2026-05-04 19:06 | 55.37064 | 12.32512 | 11055 ft | 317 kts | 218° |
| 2026-05-04 19:06 | 55.35239 | 12.30298 | 11761 ft | 321 kts | 218° |
| 2026-05-04 19:06 | 55.33391 | 12.28064 | 12512 ft | 324 kts | 218° |
| 2026-05-04 19:06 | 55.31529 | 12.25817 | 13258 ft | 326 kts | 218° |
| 2026-05-04 19:07 | 55.29653 | 12.23552 | 13969 ft | 329 kts | 218° |
| 2026-05-04 19:07 | 55.27764 | 12.21269 | 14629 ft | 331 kts | 218° |
| 2026-05-04 19:07 | 55.25854 | 12.18961 | 15237 ft | 335 kts | 218° |
| 2026-05-04 19:07 | 55.23929 | 12.16638 | 15843 ft | 338 kts | 218° |
| 2026-05-04 19:08 | 55.22002 | 12.14320 | 16451 ft | 342 kts | 218° |
| 2026-05-04 19:08 | 55.20038 | 12.11960 | 17064 ft | 345 kts | 218° |
| 2026-05-04 19:08 | 55.18070 | 12.09520 | 17644 ft | 348 kts | 219° |
| 2026-05-04 19:08 | 55.16112 | 12.07012 | 18238 ft | 351 kts | 220° |
| 2026-05-04 19:09 | 55.14145 | 12.04459 | 18776 ft | 353 kts | 220° |
| 2026-05-04 19:09 | 55.12167 | 12.01888 | 19296 ft | 356 kts | 220° |
| 2026-05-04 19:09 | 55.10168 | 11.99305 | 19825 ft | 359 kts | 219° |
| 2026-05-04 19:09 | 55.08151 | 11.96717 | 20347 ft | 361 kts | 219° |
| 2026-05-04 19:10 | 55.06118 | 11.94125 | 20863 ft | 364 kts | 219° |
| 2026-05-04 19:10 | 55.04065 | 11.91517 | 21366 ft | 366 kts | 219° |
| 2026-05-04 19:10 | 55.01996 | 11.88897 | 21865 ft | 369 kts | 219° |
| 2026-05-04 19:10 | 54.99913 | 11.86266 | 22359 ft | 371 kts | 219° |
| 2026-05-04 19:11 | 54.97818 | 11.83618 | 22843 ft | 374 kts | 219° |
| 2026-05-04 19:11 | 54.95711 | 11.80948 | 23320 ft | 376 kts | 219° |
| 2026-05-04 19:11 | 54.93589 | 11.78264 | 23755 ft | 377 kts | 220° |
| 2026-05-04 19:11 | 54.91467 | 11.75590 | 24237 ft | 377 kts | 220° |
| 2026-05-04 19:12 | 54.89343 | 11.72920 | 24702 ft | 376 kts | 220° |
| 2026-05-04 19:12 | 54.85097 | 11.67591 | 25575 ft | 377 kts | 220° |
| 2026-05-04 19:12 | 54.82968 | 11.64924 | 26000 ft | 378 kts | 220° |
| 2026-05-04 19:13 | 54.80870 | 11.62296 | 26414 ft | 378 kts | 221° |
| 2026-05-04 19:13 | 54.78737 | 11.59624 | 26827 ft | 379 kts | 221° |
| 2026-05-04 19:13 | 54.76599 | 11.56944 | 27239 ft | 379 kts | 221° |
| 2026-05-04 19:13 | 54.74459 | 11.54265 | 27636 ft | 380 kts | 221° |
| 2026-05-04 19:14 | 54.72313 | 11.51586 | 28031 ft | 381 kts | 221° |
| 2026-05-04 19:14 | 54.70167 | 11.48912 | 28395 ft | 381 kts | 221° |
| 2026-05-04 19:14 | 54.68010 | 11.46229 | 28803 ft | 382 kts | 221° |
| 2026-05-04 19:14 | 54.65850 | 11.43545 | 29194 ft | 383 kts | 221° |
| 2026-05-04 19:15 | 54.63683 | 11.40861 | 29540 ft | 384 kts | 221° |
| 2026-05-04 19:15 | 54.61510 | 11.38181 | 29884 ft | 385 kts | 221° |
| 2026-05-04 19:15 | 54.59322 | 11.35491 | 30205 ft | 386 kts | 221° |
| 2026-05-04 19:15 | 54.57133 | 11.32797 | 30463 ft | 388 kts | 221° |
| 2026-05-04 19:16 | 54.54932 | 11.30084 | 30688 ft | 390 kts | 221° |
| 2026-05-04 19:16 | 54.52717 | 11.27360 | 30902 ft | 393 kts | 220° |
| 2026-05-04 19:16 | 54.50483 | 11.24628 | 31103 ft | 395 kts | 220° |
| 2026-05-04 19:16 | 54.48233 | 11.21890 | 31339 ft | 396 kts | 220° |
| 2026-05-04 19:17 | 54.45979 | 11.19152 | 31598 ft | 398 kts | 220° |
| 2026-05-04 19:17 | 54.43716 | 11.16407 | 31867 ft | 399 kts | 220° |
| 2026-05-04 19:17 | 54.41473 | 11.13693 | 32147 ft | 399 kts | 220° |
| 2026-05-04 19:17 | 54.39201 | 11.10954 | 32441 ft | 400 kts | 220° |
| 2026-05-04 19:18 | 54.37487 | 11.08891 | 32657 ft | 400 kts | 220° |
| 2026-05-04 19:18 | 54.35204 | 11.06147 | 32951 ft | 401 kts | 220° |
| 2026-05-04 19:18 | 54.32920 | 11.03402 | 33238 ft | 401 kts | 220° |
| 2026-05-04 19:18 | 54.30636 | 11.00654 | 33533 ft | 401 kts | 220° |
| 2026-05-04 19:19 | 54.28353 | 10.97918 | 33818 ft | 402 kts | 219° |
| 2026-05-04 19:19 | 54.26048 | 10.95176 | 34088 ft | 403 kts | 219° |
| 2026-05-04 19:19 | 54.23744 | 10.92449 | 34289 ft | 404 kts | 219° |
| 2026-05-04 19:19 | 54.21454 | 10.89755 | 34504 ft | 404 kts | 219° |
| 2026-05-04 19:20 | 54.19109 | 10.87006 | 34729 ft | 405 kts | 219° |
| 2026-05-04 19:20 | 54.16781 | 10.84272 | 34942 ft | 406 kts | 219° |
| 2026-05-04 19:20 | 54.14460 | 10.81546 | 35145 ft | 406 kts | 219° |
| 2026-05-04 19:20 | 54.12126 | 10.78807 | 35350 ft | 407 kts | 219° |
| 2026-05-04 19:21 | 54.09775 | 10.76097 | 35550 ft | 408 kts | 217° |
| 2026-05-04 19:21 | 54.07380 | 10.73490 | 35741 ft | 410 kts | 216° |
| 2026-05-04 19:21 | 54.04945 | 10.70950 | 35952 ft | 411 kts | 215° |
| 2026-05-04 19:21 | 54.02496 | 10.68451 | 36139 ft | 411 kts | 215° |
| 2026-05-04 19:22 | 54.00069 | 10.65985 | 36306 ft | 412 kts | 214° |
| 2026-05-04 19:22 | 53.97613 | 10.63481 | 36480 ft | 412 kts | 215° |
| 2026-05-04 19:22 | 53.95157 | 10.60962 | 36667 ft | 413 kts | 215° |
| 2026-05-04 19:22 | 53.92665 | 10.58393 | 36841 ft | 413 kts | 215° |
| 2026-05-04 19:23 | 53.90213 | 10.55852 | 37030 ft | 414 kts | 215° |
| 2026-05-04 19:23 | 53.87789 | 10.53334 | 37190 ft | 414 kts | 215° |
| 2026-05-04 19:23 | 53.85300 | 10.50752 | 37374 ft | 414 kts | 214° |
| 2026-05-04 19:23 | 53.82869 | 10.48238 | 37535 ft | 415 kts | 214° |
| 2026-05-04 19:24 | 53.80403 | 10.45693 | 37703 ft | 415 kts | 214° |
| 2026-05-04 19:24 | 53.77935 | 10.43149 | 37868 ft | 415 kts | 214° |
| 2026-05-04 19:24 | 53.75466 | 10.40609 | 37969 ft | 417 kts | 214° |
| 2026-05-04 19:25 | 53.70509 | 10.35517 | 37975 ft | 417 kts | 214° |
| 2026-05-04 19:25 | 53.65546 | 10.30436 | 37993 ft | 417 kts | 214° |
| 2026-05-04 19:26 | 53.60585 | 10.25374 | 37995 ft | 417 kts | 214° |
| 2026-05-04 19:26 | 53.55622 | 10.20314 | 37978 ft | 417 kts | 214° |
| 2026-05-04 19:27 | 53.50658 | 10.15284 | 37999 ft | 416 kts | 214° |
| 2026-05-04 19:27 | 53.45697 | 10.10274 | 38003 ft | 416 kts | 213° |
| 2026-05-04 19:28 | 53.40732 | 10.05285 | 37990 ft | 416 kts | 213° |
| 2026-05-04 19:28 | 53.35768 | 10.00304 | 37983 ft | 416 kts | 213° |
| 2026-05-04 19:29 | 53.30811 | 9.95340 | 37980 ft | 415 kts | 213° |
| 2026-05-04 19:29 | 53.25862 | 9.90391 | 37993 ft | 414 kts | 213° |
| 2026-05-04 19:30 | 53.20960 | 9.85497 | 37998 ft | 413 kts | 213° |
| 2026-05-04 19:30 | 53.16033 | 9.80591 | 37998 ft | 412 kts | 213° |
| 2026-05-04 19:31 | 53.11115 | 9.75704 | 37995 ft | 412 kts | 213° |
| 2026-05-04 19:31 | 53.06188 | 9.70839 | 37646 ft | 411 kts | 213° |
| 2026-05-04 19:31 | 53.03733 | 9.68423 | 37370 ft | 409 kts | 213° |
| 2026-05-04 19:32 | 53.01288 | 9.66014 | 37097 ft | 408 kts | 213° |
| 2026-05-04 19:32 | 52.98847 | 9.63607 | 36832 ft | 407 kts | 213° |
| 2026-05-04 19:32 | 52.96413 | 9.61209 | 36568 ft | 407 kts | 213° |
| 2026-05-04 19:32 | 52.93984 | 9.58821 | 36308 ft | 406 kts | 213° |
| 2026-05-04 19:33 | 52.91558 | 9.56443 | 36051 ft | 404 kts | 213° |
| 2026-05-04 19:33 | 52.89150 | 9.54086 | 35796 ft | 401 kts | 214° |
| 2026-05-04 19:33 | 52.86751 | 9.51743 | 35525 ft | 398 kts | 213° |
| 2026-05-04 19:33 | 52.84380 | 9.49429 | 35272 ft | 393 kts | 213° |
| 2026-05-04 19:34 | 52.82038 | 9.47141 | 35023 ft | 390 kts | 213° |
| 2026-05-04 19:34 | 52.79745 | 9.44903 | 34815 ft | 387 kts | 214° |
| 2026-05-04 19:34 | 52.77437 | 9.42651 | 34559 ft | 383 kts | 214° |
| 2026-05-04 19:34 | 52.75151 | 9.40426 | 34316 ft | 380 kts | 214° |
| 2026-05-04 19:35 | 52.72876 | 9.38219 | 34085 ft | 377 kts | 214° |
| 2026-05-04 19:35 | 52.70622 | 9.36034 | 33824 ft | 374 kts | 214° |
| 2026-05-04 19:35 | 52.68385 | 9.33870 | 33541 ft | 372 kts | 214° |
| 2026-05-04 19:35 | 52.66156 | 9.31715 | 33259 ft | 370 kts | 214° |
| 2026-05-04 19:36 | 52.63941 | 9.29573 | 32985 ft | 369 kts | 213° |
| 2026-05-04 19:36 | 52.61731 | 9.27442 | 32715 ft | 367 kts | 213° |
| 2026-05-04 19:36 | 52.59532 | 9.25325 | 32446 ft | 366 kts | 213° |
| 2026-05-04 19:36 | 52.57337 | 9.23210 | 32184 ft | 365 kts | 213° |
| 2026-05-04 19:37 | 52.55152 | 9.21102 | 31930 ft | 363 kts | 213° |
| 2026-05-04 19:37 | 52.52976 | 9.19005 | 31673 ft | 362 kts | 213° |
| 2026-05-04 19:37 | 52.50806 | 9.16920 | 31416 ft | 361 kts | 213° |
| 2026-05-04 19:37 | 52.48639 | 9.14848 | 31162 ft | 360 kts | 213° |
| 2026-05-04 19:38 | 52.46476 | 9.12785 | 30911 ft | 359 kts | 213° |
| 2026-05-04 19:38 | 52.44324 | 9.10729 | 30657 ft | 358 kts | 213° |
| 2026-05-04 19:38 | 52.42179 | 9.08678 | 30411 ft | 357 kts | 213° |
| 2026-05-04 19:38 | 52.40038 | 9.06635 | 30150 ft | 355 kts | 214° |
| 2026-05-04 19:39 | 52.37908 | 9.04603 | 29876 ft | 354 kts | 214° |
| 2026-05-04 19:39 | 52.35781 | 9.02574 | 29597 ft | 353 kts | 214° |
| 2026-05-04 19:39 | 52.33664 | 9.00560 | 29326 ft | 352 kts | 213° |
| 2026-05-04 19:39 | 52.31556 | 8.98558 | 29037 ft | 350 kts | 213° |
| 2026-05-04 19:40 | 52.29450 | 8.96562 | 28755 ft | 349 kts | 213° |
| 2026-05-04 19:40 | 52.27378 | 8.94600 | 28487 ft | 348 kts | 213° |
| 2026-05-04 19:40 | 52.25292 | 8.92625 | 28213 ft | 347 kts | 213° |
| 2026-05-04 19:40 | 52.23208 | 8.90651 | 27953 ft | 346 kts | 213° |
| 2026-05-04 19:41 | 52.21129 | 8.88684 | 27683 ft | 345 kts | 212° |
| 2026-05-04 19:41 | 52.19052 | 8.86726 | 27417 ft | 344 kts | 212° |
| 2026-05-04 19:41 | 52.16986 | 8.84783 | 27153 ft | 342 kts | 212° |
| 2026-05-04 19:41 | 52.14930 | 8.82849 | 26888 ft | 341 kts | 212° |
| 2026-05-04 19:42 | 52.12875 | 8.80919 | 26632 ft | 340 kts | 212° |
| 2026-05-04 19:42 | 52.10827 | 8.79003 | 26380 ft | 339 kts | 212° |
| 2026-05-04 19:42 | 52.08783 | 8.77090 | 26126 ft | 339 kts | 212° |
| 2026-05-04 19:42 | 52.06802 | 8.75040 | 25875 ft | 336 kts | 221° |
| 2026-05-04 19:43 | 52.05292 | 8.72192 | 25627 ft | 334 kts | 239° |
| 2026-05-04 19:43 | 52.04378 | 8.68715 | 25386 ft | 336 kts | 248° |
| 2026-05-04 19:43 | 52.03590 | 8.65136 | 25141 ft | 336 kts | 248° |
| 2026-05-04 19:43 | 52.02804 | 8.61558 | 24897 ft | 336 kts | 248° |
| 2026-05-04 19:44 | 52.02020 | 8.57988 | 24658 ft | 336 kts | 248° |
| 2026-05-04 19:44 | 52.01235 | 8.54416 | 24415 ft | 336 kts | 248° |
| 2026-05-04 19:44 | 52.00456 | 8.50894 | 24173 ft | 335 kts | 248° |
| 2026-05-04 19:44 | 51.99667 | 8.47339 | 23961 ft | 335 kts | 248° |
| 2026-05-04 19:45 | 51.98880 | 8.43778 | 23727 ft | 335 kts | 248° |
| 2026-05-04 19:45 | 51.98089 | 8.40217 | 23471 ft | 335 kts | 248° |
| 2026-05-04 19:45 | 51.97298 | 8.36653 | 23195 ft | 336 kts | 249° |
| 2026-05-04 19:45 | 51.96513 | 8.33080 | 22923 ft | 336 kts | 249° |
| 2026-05-04 19:46 | 51.95723 | 8.29525 | 22655 ft | 335 kts | 248° |
| 2026-05-04 19:46 | 51.94929 | 8.25970 | 22384 ft | 335 kts | 248° |
| 2026-05-04 19:46 | 51.94138 | 8.22429 | 22120 ft | 334 kts | 248° |
| 2026-05-04 19:46 | 51.93372 | 8.19009 | 21868 ft | 333 kts | 248° |
| 2026-05-04 19:47 | 51.92558 | 8.15398 | 21597 ft | 332 kts | 248° |
| 2026-05-04 19:47 | 51.91766 | 8.11894 | 21339 ft | 331 kts | 248° |
| 2026-05-04 19:47 | 51.91242 | 8.09583 | 21168 ft | 330 kts | 248° |
| 2026-05-04 19:47 | 51.90452 | 8.06097 | 20907 ft | 329 kts | 248° |
| 2026-05-04 19:48 | 51.89665 | 8.02629 | 20664 ft | 328 kts | 248° |
| 2026-05-04 19:48 | 51.88879 | 7.99167 | 20419 ft | 327 kts | 248° |
| 2026-05-04 19:48 | 51.88091 | 7.95715 | 20162 ft | 326 kts | 247° |
| 2026-05-04 19:48 | 51.87307 | 7.92278 | 19914 ft | 325 kts | 247° |
| 2026-05-04 19:49 | 51.86524 | 7.88848 | 19679 ft | 325 kts | 247° |
| 2026-05-04 19:49 | 51.85746 | 7.85427 | 19430 ft | 324 kts | 247° |
| 2026-05-04 19:49 | 51.84967 | 7.82017 | 19187 ft | 323 kts | 247° |
| 2026-05-04 19:49 | 51.84206 | 7.78700 | 18964 ft | 322 kts | 247° |
| 2026-05-04 19:50 | 51.83426 | 7.75306 | 18725 ft | 322 kts | 247° |
| 2026-05-04 19:50 | 51.82643 | 7.71923 | 18486 ft | 321 kts | 246° |
| 2026-05-04 19:50 | 51.81862 | 7.68550 | 18255 ft | 320 kts | 247° |
| 2026-05-04 19:50 | 51.81087 | 7.65188 | 17990 ft | 319 kts | 247° |
| 2026-05-04 19:51 | 51.80314 | 7.61831 | 17717 ft | 317 kts | 247° |
| 2026-05-04 19:51 | 51.79547 | 7.58505 | 17445 ft | 314 kts | 247° |
| 2026-05-04 19:51 | 51.78785 | 7.55215 | 17181 ft | 312 kts | 247° |
| 2026-05-04 19:51 | 51.78026 | 7.51947 | 16918 ft | 310 kts | 247° |
| 2026-05-04 19:52 | 51.77274 | 7.48720 | 16659 ft | 305 kts | 247° |
| 2026-05-04 19:52 | 51.76532 | 7.45549 | 16401 ft | 300 kts | 247° |
| 2026-05-04 19:52 | 51.75798 | 7.42420 | 16153 ft | 296 kts | 247° |
| 2026-05-04 19:52 | 51.75085 | 7.39374 | 15899 ft | 292 kts | 247° |
| 2026-05-04 19:53 | 51.74373 | 7.36324 | 15638 ft | 289 kts | 247° |
| 2026-05-04 19:53 | 51.73668 | 7.33311 | 15466 ft | 283 kts | 247° |
| 2026-05-04 19:53 | 51.72983 | 7.30389 | 15341 ft | 276 kts | 247° |
| 2026-05-04 19:53 | 51.72307 | 7.27525 | 15206 ft | 270 kts | 247° |
| 2026-05-04 19:54 | 51.71640 | 7.24706 | 14911 ft | 270 kts | 247° |
| 2026-05-04 19:54 | 51.70969 | 7.21879 | 14623 ft | 270 kts | 247° |
| 2026-05-04 19:54 | 51.70303 | 7.19063 | 14358 ft | 269 kts | 247° |
| 2026-05-04 19:54 | 51.69637 | 7.16244 | 14097 ft | 268 kts | 247° |
| 2026-05-04 19:55 | 51.68916 | 7.13485 | 13836 ft | 266 kts | 238° |
| 2026-05-04 19:55 | 51.67866 | 7.11049 | 13542 ft | 264 kts | 231° |
| 2026-05-04 19:55 | 51.66755 | 7.08692 | 13244 ft | 264 kts | 231° |
| 2026-05-04 19:55 | 51.65650 | 7.06345 | 12954 ft | 263 kts | 231° |
| 2026-05-04 19:56 | 51.64546 | 7.03993 | 12607 ft | 264 kts | 231° |
| 2026-05-04 19:56 | 51.63441 | 7.01636 | 12336 ft | 263 kts | 231° |
| 2026-05-04 19:56 | 51.62345 | 6.99296 | 12107 ft | 261 kts | 231° |
| 2026-05-04 19:56 | 51.61252 | 6.96974 | 11887 ft | 260 kts | 231° |
| 2026-05-04 19:57 | 51.60162 | 6.94661 | 11675 ft | 259 kts | 231° |
| 2026-05-04 19:57 | 51.59093 | 6.92392 | 11446 ft | 256 kts | 231° |
| 2026-05-04 19:57 | 51.57840 | 6.90440 | 11238 ft | 250 kts | 207° |
| 2026-05-04 19:57 | 51.56187 | 6.89797 | 11005 ft | 248 kts | 176° |
| 2026-05-04 19:58 | 51.54546 | 6.90649 | 10636 ft | 252 kts | 149° |
| 2026-05-04 19:58 | 51.53106 | 6.92283 | 10263 ft | 255 kts | 144° |
| 2026-05-04 19:58 | 51.51697 | 6.94035 | 9907 ft | 257 kts | 143° |
| 2026-05-04 19:58 | 51.50296 | 6.95798 | 9515 ft | 255 kts | 143° |
| 2026-05-04 19:59 | 51.48915 | 6.97542 | 9125 ft | 251 kts | 143° |
| 2026-05-04 19:59 | 51.47555 | 6.99266 | 8726 ft | 247 kts | 143° |
| 2026-05-04 19:59 | 51.46217 | 7.00970 | 8344 ft | 245 kts | 143° |
| 2026-05-04 19:59 | 51.44883 | 7.02674 | 8012 ft | 244 kts | 143° |
| 2026-05-04 20:00 | 51.43577 | 7.04349 | 7980 ft | 241 kts | 143° |
| 2026-05-04 20:00 | 51.42267 | 7.06033 | 7985 ft | 241 kts | 143° |
| 2026-05-04 20:00 | 51.40959 | 7.07713 | 7984 ft | 241 kts | 143° |
| 2026-05-04 20:00 | 51.39649 | 7.09396 | 7988 ft | 241 kts | 143° |
| 2026-05-04 20:01 | 51.38338 | 7.11080 | 7997 ft | 241 kts | 143° |
| 2026-05-04 20:01 | 51.37026 | 7.12761 | 7994 ft | 241 kts | 143° |
| 2026-05-04 20:01 | 51.35664 | 7.14310 | 7980 ft | 239 kts | 158° |
| 2026-05-04 20:01 | 51.34066 | 7.14724 | 7991 ft | 233 kts | 189° |
| 2026-05-04 20:02 | 51.32604 | 7.13712 | 7988 ft | 232 kts | 220° |
| 2026-05-04 20:02 | 51.31709 | 7.11579 | 7986 ft | 237 kts | 251° |
| 2026-05-04 20:02 | 51.31658 | 7.08940 | 7979 ft | 244 kts | 282° |
| 2026-05-04 20:02 | 51.32496 | 7.06558 | 7974 ft | 253 kts | 313° |
| 2026-05-04 20:03 | 51.33988 | 7.05139 | 7980 ft | 259 kts | 343° |
| 2026-05-04 20:03 | 51.35784 | 7.05062 | 7980 ft | 262 kts | 14° |
| 2026-05-04 20:03 | 51.37376 | 7.06392 | 7986 ft | 259 kts | 44° |
| 2026-05-04 20:03 | 51.38596 | 7.08524 | 7717 ft | 262 kts | 52° |
| 2026-05-04 20:04 | 51.39735 | 7.10793 | 7341 ft | 261 kts | 53° |
| 2026-05-04 20:04 | 51.40856 | 7.13089 | 6971 ft | 261 kts | 57° |
| 2026-05-04 20:04 | 51.41797 | 7.15562 | 6607 ft | 260 kts | 63° |
| 2026-05-04 20:04 | 51.42669 | 7.18098 | 6231 ft | 260 kts | 63° |
| 2026-05-04 20:05 | 51.43530 | 7.20641 | 5836 ft | 260 kts | 63° |
| 2026-05-04 20:05 | 51.44385 | 7.23194 | 5451 ft | 260 kts | 63° |
| 2026-05-04 20:05 | 51.45233 | 7.25758 | 5086 ft | 260 kts | 63° |
| 2026-05-04 20:05 | 51.46057 | 7.28273 | 5008 ft | 250 kts | 63° |
| 2026-05-04 20:06 | 51.46920 | 7.30696 | 5018 ft | 251 kts | 51° |
| 2026-05-04 20:06 | 51.48288 | 7.32365 | 5023 ft | 249 kts | 19° |
| 2026-05-04 20:06 | 51.49976 | 7.32688 | 5023 ft | 244 kts | 347° |
| 2026-05-04 20:06 | 51.51486 | 7.31595 | 5014 ft | 237 kts | 314° |
| 2026-05-04 20:07 | 51.52397 | 7.29459 | 4835 ft | 235 kts | 284° |
| 2026-05-04 20:07 | 51.52523 | 7.26893 | 4403 ft | 232 kts | 261° |
| 2026-05-04 20:07 | 51.51981 | 7.24483 | 3964 ft | 232 kts | 237° |
| 2026-05-04 20:07 | 51.51004 | 7.22421 | 3543 ft | 234 kts | 227° |
| 2026-05-04 20:08 | 51.49939 | 7.20476 | 3131 ft | 237 kts | 230° |
| 2026-05-04 20:08 | 51.48944 | 7.18432 | 3006 ft | 227 kts | 232° |
| 2026-05-04 20:08 | 51.48000 | 7.16419 | 3019 ft | 225 kts | 232° |
| 2026-05-04 20:08 | 51.47059 | 7.14408 | 3019 ft | 226 kts | 232° |
| 2026-05-04 20:09 | 51.46118 | 7.12402 | 3019 ft | 225 kts | 232° |
| 2026-05-04 20:09 | 51.45177 | 7.10398 | 3008 ft | 221 kts | 232° |
| 2026-05-04 20:09 | 51.44290 | 7.08511 | 3004 ft | 202 kts | 232° |
| 2026-05-04 20:09 | 51.43481 | 7.06790 | 3012 ft | 187 kts | 232° |
| 2026-05-04 20:10 | 51.42718 | 7.05170 | 3007 ft | 179 kts | 231° |
| 2026-05-04 20:10 | 51.41978 | 7.03600 | 3010 ft | 176 kts | 231° |
| 2026-05-04 20:10 | 51.41246 | 7.02045 | 3010 ft | 174 kts | 231° |
| 2026-05-04 20:10 | 51.40516 | 7.00498 | 3016 ft | 174 kts | 231° |
| 2026-05-04 20:11 | 51.37665 | 6.94461 | 2735 ft | 175 kts | 231° |
| 2026-05-04 20:12 | 51.36928 | 6.92904 | 2518 ft | 176 kts | 231° |
| 2026-05-04 20:12 | 51.36191 | 6.91346 | 2287 ft | 178 kts | 231° |
| 2026-05-04 20:12 | 51.35443 | 6.89766 | 2073 ft | 177 kts | 231° |
| 2026-05-04 20:12 | 51.34716 | 6.88232 | 1820 ft | 168 kts | 232° |
| 2026-05-04 20:13 | 51.34043 | 6.86818 | 1661 ft | 150 kts | 230° |
| 2026-05-04 20:13 | 51.33426 | 6.85530 | 1498 ft | 142 kts | 230° |
| 2026-05-04 20:13 | 51.32837 | 6.84286 | 1304 ft | 140 kts | 231° |
| 2026-05-04 20:13 | 51.32249 | 6.83052 | 1085 ft | 140 kts | 231° |
| 2026-05-04 20:14 | 51.31671 | 6.81798 | 727 ft | 139 kts | 230° |
| 2026-05-04 20:14 | 51.31099 | 6.80563 | 492 ft | 136 kts | 230° |
| 2026-05-04 20:14 | 51.30530 | 6.79377 | 363 ft | 136 kts | 230° |
| 2026-05-04 20:14 | 51.29948 | 6.78173 | 201 ft | 136 kts | 229° |
| 2026-05-04 20:15 | 51.29377 | 6.77014 | 116 ft | 121 kts | 233° |
| 2026-05-04 20:15 | 51.28974 | 6.76156 | 119 ft | 76 kts | 233° |
| 2026-05-04 20:15 | 51.28746 | 6.75734 | 115 ft | 35 kts | 211° |
| 2026-05-04 20:15 | 51.28569 | 6.75694 | 116 ft | 22 kts | 152° |
| 2026-05-04 20:16 | 51.28447 | 6.75803 | 115 ft | 19 kts | 145° |
| 2026-05-04 20:16 | 51.28347 | 6.75920 | 114 ft | 17 kts | 142° |
| 2026-05-04 20:16 | 51.28252 | 6.75987 | 117 ft | 13 kts | 185° |
| 2026-05-04 20:16 | 51.28173 | 6.75941 | 117 ft | 11 kts | 204° |
| 2026-05-04 20:17 | 51.28110 | 6.75897 | 116 ft | 8 kts | 205° |
| 2026-05-04 20:17 | 51.28072 | 6.75867 | 115 ft | 4 kts | 205° |
| 2026-05-04 20:17 | 51.28060 | 6.75859 | 117 ft | 0 kts | 205° |
| 2026-05-04 20:17 | 51.28028 | 6.75834 | 115 ft | 10 kts | 206° |
| 2026-05-04 20:18 | 51.27998 | 6.75851 | 114 ft | 2 kts | 110° |
| 2026-05-04 20:18 | 51.27994 | 6.75910 | 118 ft | 5 kts | 90° |
| 2026-05-04 20:18 | 51.27994 | 6.75929 | 118 ft | 0 kts | 90° |